Flight Track Log - Related Links

Times and Time Zones

All times are in EDT time to prevent confusion due to time zone crossing. See the JIA2497 flight status page for this flight to view local times or setup timezone preferences in your user account.

Time Position Orientation Groundspeed Altitude Reporting Facility
EDT Latitude Longitude Course Direction KTS MPH feet Rate Location/Type
Sun 08:07:00 PM 35.6772 -78.0092 276° West  Level FlightAware Approximate
Sun 08:11:21 PM 35.6861 -77.3539 276° West 304 350 4,200  Level Washington Center
Sun 08:12:19 PM 35.7311 -77.4267 307° West 250 288 7,500 3,153 Climbing Washington Center
Sun 08:13:19 PM 35.7169 -77.5158 259° West 206 237 10,400 2,777 Climbing Washington Center
Sun 08:14:20 PM 35.7217 -77.6131 273° West 250 288 13,100 2,361 Climbing Washington Center
Sun 08:15:21 PM 35.7261 -77.7183 273° West 284 327 15,200 2,168 Climbing Washington Center
Sun 08:16:19 PM 35.7325 -77.8258 274° West 305 351 17,400 1,866 Climbing Washington Center
Sun 08:17:20 PM 35.7389 -77.9361 274° West 318 366 18,900 1,600 Climbing Washington Center
Sun 08:18:19 PM 35.7447 -78.0514 274° West 331 381 20,600 1,488 Climbing Washington Center
Sun 08:19:21 PM 35.7508 -78.1667 274° West 331 381 21,900 689 Climbing Washington Center
Sun 08:20:21 PM 35.7583 -78.2950 274° West 350 403 22,000 51 Climbing Washington Center
Sun 08:21:19 PM 35.7658 -78.4233 274° West 372 428 22,000  Level Washington Center
Sun 08:22:19 PM 35.7711 -78.5539 273° West 383 441 22,000  Level Washington Center
Sun 08:23:20 PM 35.7761 -78.6822 273° West 383 441 22,000  Level Washington Center
Sun 08:24:20 PM 35.7811 -78.8078 273° West 383 441 22,000  Level Washington Center
Sun 08:25:20 PM 35.7861 -78.9308 273° West 378 435 22,000  Level Washington Center
Sun 08:26:20 PM 35.7908 -79.0567 273° West 378 435 22,000 -33 Level Washington Center
Sun 08:28:20 PM 35.8000 -79.3047 273° West 366 421 21,900 -800 Descending Atlanta Center
Sun 08:29:20 PM 35.8072 -79.4400 274° West 366 421 19,600 -2,050 Descending Atlanta Center
Sun 08:30:20 PM 35.8097 -79.5578 272° West 361 415 17,800 -1,300 Descending Atlanta Center
Sun 08:31:20 PM 35.8114 -79.6650 271° West 342 394 17,000 -400 Descending Atlanta Center
Sun 08:32:20 PM 35.8114 -79.7856 270° West 337 388 17,000  Level Atlanta Center
Sun 08:33:20 PM 35.8114 -79.9033 270° West 342 394 17,000  Level Atlanta Center
Sun 08:34:20 PM 35.8111 -80.0261 270° West 356 410 17,000 -50 Level Atlanta Center
Sun 08:35:20 PM 35.8106 -80.1364 270° West 362 417 16,900 -480 Descending Atlanta Center
Sun 08:35:35 PM 35.8122 -80.1850 272° West 364 419 16,400 -1,700 Descending Atlanta Center
Sun 08:36:20 PM 35.8122 -80.2567 270° West 362 417 15,200 -1,770 Descending Atlanta Center
Sun 08:36:36 PM 35.8136 -80.3000 272° West 337 388 14,600 -1,900 Descending Atlanta Center
Sun 08:37:20 PM 35.8114 -80.3692 268° West 337 388 13,300 -1,600 Descending Atlanta Center
Sun 08:37:36 PM 35.8128 -80.4128 272° West 308 354 13,000 -700 Descending Atlanta Center
Sun 08:38:20 PM 35.7811 -80.4706 236° Southwest 287 330 12,600 -1,385 Descending Atlanta Center
Sun 08:39:20 PM 35.7117 -80.5247 212° Southwest 278 320 10,600 -2,077 Descending Atlanta Center
Sun 08:39:38 PM 35.6892 -80.5358 202° Southwest 289 333 9,900 -2,100 Descending Atlanta Center
Sun 08:40:20 PM 35.6400 -80.5711 210° Southwest 285 328 8,500 -2,000 Descending Atlanta Center
Sun 08:41:20 PM 35.5744 -80.6147 208° Southwest 285 328 6,500 -1,800 Descending Atlanta Center
Sun 08:41:40 PM 35.5561 -80.6308 216° Southwest 268 308 6,100 -500 Descending Atlanta Center
Sun 08:42:20 PM 35.5111 -80.6608 208° Southwest 272 313 6,000 -109 Descending Atlanta Center
Sun 08:42:35 PM 35.4989 -80.6689 208° Southwest 251 289 6,000 -100 Level Atlanta Center
Sun 08:43:20 PM 35.4517 -80.7014 209° Southwest 258 297 5,900 -537 Descending Atlanta Center
Sun 08:43:42 PM 35.4314 -80.7175 213° Southwest 242 278 5,400 -1,373 Descending Atlanta Center
Sun 08:44:43 PM 35.3800 -80.7528 209° Southwest 206 237 4,000 -689 Descending Atlanta Center
Sun 08:45:44 PM 35.3369 -80.7800 207° Southwest 174 200 4,000  Level Atlanta Center

Login

Don't have an account? Register now (free) for customized features, flight alerts, and more!